createdAt,value
2023-01-03T00:03:05.040Z,10.10
2023-01-03T00:08:12.437Z,11.50
2023-01-03T00:13:19.375Z,11.50
2023-01-03T00:18:29.217Z,10.70
2023-01-03T00:23:36.143Z,11.50
2023-01-03T00:28:43.078Z,10.50
2023-01-03T00:33:50.259Z,10.00
2023-01-03T00:38:57.239Z,10.00
2023-01-03T00:44:04.524Z,7.60
2023-01-03T00:49:12.360Z,5.50
2023-01-03T00:54:19.298Z,5.80
2023-01-03T00:59:27.099Z,5.10
2023-01-03T01:04:35.507Z,4.60
2023-01-03T01:09:42.749Z,5.30
2023-01-03T01:14:49.661Z,4.50
2023-01-03T01:19:59.194Z,4.90
2023-01-03T01:25:06.979Z,4.50
2023-01-03T01:30:14.341Z,4.30
2023-01-03T01:35:21.348Z,5.20
2023-01-03T01:40:28.837Z,5.60
2023-01-03T01:45:38.294Z,5.40
2023-01-03T01:50:54.259Z,5.50
2023-01-03T01:56:07.454Z,5.20
2023-01-03T02:01:17.839Z,5.90
2023-01-03T02:06:26.004Z,5.50
2023-01-03T02:11:42.032Z,5.90
2023-01-03T02:17:01.653Z,6.40
2023-01-03T02:22:25.306Z,6.70
2023-01-03T02:28:01.997Z,6.10
2023-01-03T02:33:19.951Z,6.60
2023-01-03T02:38:35.671Z,7.20
2023-01-03T02:43:52.391Z,6.90
2023-01-03T02:49:05.465Z,8.20
2023-01-03T02:54:16.793Z,8.80
2023-01-03T02:59:35.250Z,8.20
2023-01-03T03:04:47.313Z,8.30
2023-01-03T03:10:11.892Z,8.60
2023-01-03T03:15:23.322Z,8.20
2023-01-03T03:20:48.161Z,7.50
2023-01-03T03:25:59.393Z,7.50
2023-01-03T03:31:10.497Z,7.80
2023-01-03T03:36:25.569Z,7.00
2023-01-03T03:41:58.662Z,6.10
2023-01-03T03:47:11.539Z,6.00
2023-01-03T03:52:22.322Z,4.80
2023-01-03T03:57:34.044Z,4.70
2023-01-03T04:07:47.125Z,5.20
2023-01-03T04:12:54.649Z,4.20
2023-01-03T04:18:03.254Z,3.90
2023-01-03T04:23:10.239Z,4.60
2023-01-03T04:28:17.554Z,3.80
2023-01-03T04:33:25.084Z,3.60
2023-01-03T04:38:32.084Z,3.90
2023-01-03T04:43:56.715Z,4.70
2023-01-03T04:49:05.165Z,5.80
2023-01-03T04:54:12.173Z,5.10
2023-01-03T04:59:19.124Z,4.40
2023-01-03T05:04:26.176Z,4.70
2023-01-03T05:09:35.775Z,4.30
2023-01-03T05:14:42.777Z,3.80
2023-01-03T05:20:08.050Z,11.10
2023-01-03T05:25:28.843Z,7.10
2023-01-03T05:30:35.855Z,6.50
2023-01-03T05:35:42.800Z,5.30
2023-01-03T05:40:49.761Z,5.90
2023-01-03T05:45:56.749Z,5.00
2023-01-03T05:51:03.760Z,5.40
2023-01-03T05:56:11.182Z,5.60
2023-01-03T06:01:18.962Z,4.70
2023-01-03T06:06:26.010Z,5.40
2023-01-03T06:11:32.962Z,5.50
2023-01-03T06:17:06.061Z,4.80
2023-01-03T06:22:13.259Z,4.60
2023-01-03T06:27:20.309Z,4.40
2023-01-03T06:32:27.446Z,4.40
2023-01-03T06:37:34.368Z,4.00
2023-01-03T06:42:44.288Z,4.40
2023-01-03T06:48:09.000Z,4.00
2023-01-03T06:53:18.295Z,4.30
2023-01-03T06:58:25.330Z,4.40
2023-01-03T07:03:32.724Z,5.30
2023-01-03T07:08:44.230Z,4.70
2023-01-03T07:14:03.514Z,5.00
2023-01-03T07:19:12.852Z,4.30
2023-01-03T07:24:19.968Z,4.30
2023-01-03T07:29:26.935Z,4.70
2023-01-03T07:34:33.938Z,4.00
2023-01-03T07:39:40.884Z,4.30
2023-01-03T07:44:47.840Z,4.30
2023-01-03T07:49:54.869Z,4.20
2023-01-03T07:55:01.900Z,4.20
2023-01-03T08:00:10.912Z,4.70
2023-01-03T08:05:19.457Z,9.30
2023-01-03T08:10:42.857Z,6.00
2023-01-03T08:15:52.981Z,7.70
2023-01-03T08:21:00.131Z,5.90
2023-01-03T08:26:09.518Z,5.90
2023-01-03T08:31:22.830Z,5.70
2023-01-03T08:36:34.387Z,7.20
2023-01-03T08:41:45.050Z,7.30
2023-01-03T08:46:54.585Z,6.40
2023-01-03T08:52:01.606Z,6.20
2023-01-03T08:57:08.535Z,6.00
2023-01-03T09:02:15.628Z,6.30
2023-01-03T09:07:22.811Z,6.70
2023-01-03T09:12:29.813Z,6.70
2023-01-03T09:17:36.944Z,5.80
2023-01-03T09:22:44.222Z,6.30
2023-01-03T09:27:51.258Z,7.10
2023-01-03T09:32:58.104Z,7.00
2023-01-03T09:38:05.049Z,6.20
2023-01-03T09:43:24.684Z,5.80
2023-01-03T09:48:37.295Z,6.20
2023-01-03T09:54:02.392Z,6.70
2023-01-03T09:59:40.750Z,6.30
2023-01-03T10:05:09.743Z,5.70
2023-01-03T10:10:24.045Z,6.30
2023-01-03T10:15:44.938Z,5.60
2023-01-03T10:20:55.385Z,6.30
2023-01-03T10:26:02.873Z,5.30
2023-01-03T10:31:29.164Z,6.50
2023-01-03T10:36:36.133Z,5.40
2023-01-03T10:41:47.124Z,5.00
2023-01-03T10:46:56.391Z,3.90
2023-01-03T10:52:10.785Z,4.10
2023-01-03T10:57:43.684Z,4.20
2023-01-03T11:02:51.673Z,4.40
2023-01-03T11:08:01.047Z,3.60
2023-01-03T11:13:23.980Z,3.90
2023-01-03T11:18:33.666Z,4.20
2023-01-03T11:23:59.018Z,3.50
2023-01-03T11:29:44.344Z,3.60
2023-01-03T11:35:22.972Z,3.60
2023-01-03T11:40:44.435Z,3.40
2023-01-03T11:46:10.378Z,3.10
2023-01-03T11:51:24.308Z,4.10
2023-01-03T11:56:36.038Z,3.30
2023-01-03T12:13:05.370Z,2.60
2023-01-03T12:18:23.424Z,3.40
2023-01-03T12:23:39.241Z,2.70
2023-01-03T12:28:53.635Z,3.00
2023-01-03T12:34:10.314Z,3.60
2023-01-03T12:39:34.408Z,2.50
2023-01-03T12:44:44.688Z,3.00
2023-01-03T12:49:58.417Z,3.60
2023-01-03T12:55:14.873Z,3.00
2023-01-03T13:00:32.485Z,3.00
2023-01-03T13:05:47.725Z,2.50
2023-01-03T13:10:59.067Z,3.00
2023-01-03T13:16:33.407Z,2.60
2023-01-03T13:22:06.213Z,3.00
2023-01-03T13:27:37.625Z,3.00
2023-01-03T13:32:53.481Z,3.20
2023-01-03T13:38:12.830Z,3.90
2023-01-03T13:43:29.942Z,3.30
2023-01-03T13:48:56.684Z,3.50
2023-01-03T13:54:07.357Z,4.80
2023-01-03T13:59:27.166Z,4.50
2023-01-03T14:05:00.793Z,4.20
2023-01-03T14:10:22.715Z,3.90
2023-01-03T14:20:38.613Z,4.40
2023-01-03T14:25:46.599Z,3.60
2023-01-03T14:31:03.546Z,2.80
2023-01-03T14:36:14.778Z,4.00
2023-01-03T14:41:35.251Z,4.00
2023-01-03T14:46:53.272Z,4.60
2023-01-03T14:52:09.847Z,4.30
2023-01-03T14:57:22.471Z,5.60
2023-01-03T15:02:37.240Z,6.70
2023-01-03T15:07:45.084Z,6.00
2023-01-03T15:13:04.566Z,7.00
2023-01-03T15:18:23.124Z,7.90
2023-01-03T15:23:41.645Z,8.10
2023-01-03T15:28:56.383Z,10.10
2023-01-03T15:34:13.197Z,11.60
2023-01-03T15:39:24.011Z,10.00
2023-01-03T15:44:33.544Z,10.70
2023-01-03T15:49:43.806Z,13.20
2023-01-03T15:54:51.224Z,16.20
2023-01-03T16:00:02.477Z,16.50
2023-01-03T16:05:23.679Z,19.20
2023-01-03T16:10:31.558Z,19.60
2023-01-03T16:15:43.830Z,21.30
2023-01-03T16:20:51.697Z,25.00
2023-01-03T16:25:59.423Z,57.80
2023-01-03T16:31:15.314Z,123.40
2023-01-03T16:36:31.806Z,50.50
2023-01-03T16:41:38.799Z,57.30
2023-01-03T16:46:46.489Z,66.40
2023-01-03T16:51:57.528Z,61.70
2023-01-03T16:57:05.180Z,91.10
2023-01-03T17:02:12.723Z,68.80
2023-01-03T17:07:25.148Z,56.60
2023-01-03T17:17:37.561Z,149.30
2023-01-03T17:22:58.749Z,170.10
2023-01-03T17:28:14.028Z,94.20
2023-01-03T17:33:33.618Z,92.00
2023-01-03T17:38:41.293Z,130.30
2023-01-03T17:44:03.361Z,91.50
2023-01-03T17:49:28.224Z,96.40
2023-01-03T17:54:38.116Z,78.00
2023-01-03T17:59:45.303Z,80.50
2023-01-03T18:10:28.397Z,124.40
2023-01-03T18:15:35.439Z,67.70
2023-01-03T18:20:42.723Z,79.70
2023-01-03T18:25:49.970Z,75.70
2023-01-03T18:30:58.156Z,76.40
2023-01-03T18:36:08.158Z,68.30
2023-01-03T18:41:28.489Z,68.80
2023-01-03T18:46:35.748Z,95.50
2023-01-03T18:51:49.283Z,103.40
2023-01-03T18:56:56.500Z,121.20
2023-01-03T19:02:04.034Z,103.40
2023-01-03T19:07:18.701Z,91.70
2023-01-03T19:12:26.407Z,80.20
2023-01-03T19:17:33.618Z,83.00
2023-01-03T19:22:42.118Z,95.40
2023-01-03T19:27:50.262Z,112.20
2023-01-03T19:32:59.253Z,95.70
2023-01-03T19:38:06.252Z,85.70
2023-01-03T19:43:21.862Z,84.90
2023-01-03T19:48:32.450Z,82.90
2023-01-03T19:53:39.639Z,75.30
2023-01-03T19:58:46.777Z,82.40
2023-01-03T20:03:53.868Z,69.00
2023-01-03T20:09:02.725Z,60.40
2023-01-03T20:14:20.233Z,70.10
2023-01-03T20:19:27.896Z,107.70
2023-01-03T20:24:36.458Z,89.00
2023-01-03T20:29:44.192Z,98.40
2023-01-03T20:34:51.533Z,89.60
2023-01-03T20:39:59.479Z,87.50
2023-01-03T20:45:08.662Z,76.10
2023-01-03T20:50:20.077Z,82.30
2023-01-03T20:55:28.232Z,74.40
2023-01-03T21:00:43.385Z,74.30
2023-01-03T21:06:19.499Z,67.40
2023-01-03T21:11:30.726Z,76.20
2023-01-03T21:16:42.232Z,68.70
2023-01-03T21:22:05.224Z,75.20
2023-01-03T21:27:20.457Z,70.90
2023-01-03T21:32:27.591Z,73.90
2023-01-03T21:37:42.093Z,68.40
2023-01-03T21:43:06.684Z,69.70
2023-01-03T21:48:15.379Z,70.00
2023-01-03T21:53:24.567Z,68.50
2023-01-03T21:58:32.688Z,66.40
2023-01-03T22:03:57.981Z,70.20
2023-01-03T22:09:07.362Z,68.20
2023-01-03T22:14:22.076Z,89.90
2023-01-03T22:19:29.083Z,65.90
2023-01-03T22:24:39.559Z,60.00
2023-01-03T22:29:46.505Z,60.10
2023-01-03T22:34:53.433Z,55.40
2023-01-03T22:40:00.399Z,56.80
2023-01-03T22:45:10.310Z,53.80
2023-01-03T22:50:17.333Z,51.80
2023-01-03T22:55:28.329Z,52.70
2023-01-03T23:00:39.591Z,51.40
2023-01-03T23:05:46.563Z,51.10
2023-01-03T23:11:13.448Z,51.40
2023-01-03T23:16:20.505Z,50.60
2023-01-03T23:21:27.580Z,55.40
2023-01-03T23:26:34.597Z,57.90
2023-01-03T23:31:41.444Z,55.60
2023-01-03T23:36:48.406Z,55.40
2023-01-03T23:41:55.362Z,59.20
2023-01-03T23:47:07.646Z,58.40
2023-01-03T23:52:18.284Z,55.00
2023-01-03T23:57:25.189Z,58.30
